Meteorología y climatología de Navarra
Datos de la estación - Meteo Navarra

Estación de Arangoiti GN

Altitud 1353 m.


Datos desde el 12/09/2019 hasta el 13/09/2019 en horario solar
Los datos son PROVISIONALES

Anterior Página 1 de 1 Siguiente Descargar: Formato para Excel 2000 o superior   Formato csv   Formato para OpenOffice Calc
Fecha Temperatura Humedad relativa Radiación global Insolación Precipitación Vel. viento 10 m Vel. viento 10 m Dir. viento 10 m
ºC % W/m² s l/m² m/s km/h º
12/09/2019 0:00 9.5 81 0.0 0 0.0 6.7 24.1 30
12/09/2019 0:10 9.2 81 0.0 0 0.0 7.6 27.4 29
12/09/2019 0:20 9.6 81 0.0 0 0.0 8.3 29.8 29
12/09/2019 0:30 9.3 80 0.0 0 0.0 8.4 30.3 32
12/09/2019 0:40 9.5 78 0.0 0 0.0 9.2 33.0 30
12/09/2019 0:50 9.6 80 0.0 0 0.0 9.2 33.2 28
12/09/2019 1:00 9.2 79 0.0 0 0.0 8.4 30.2 28
12/09/2019 1:10 9.3 79 0.0 0 0.0 8.4 30.2 28
12/09/2019 1:20 9.8 79 0.0 0 0.0 7.5 27.1 30
12/09/2019 1:30 9.7 80 0.0 0 0.0 7.4 26.6 30
12/09/2019 1:40 9.4 79 0.0 0 0.0 7.6 27.5 29
12/09/2019 1:50 9.2 79 0.0 0 0.0 6.8 24.3 35
12/09/2019 2:00 9.6 78 0.0 0 0.0 5.3 18.9 40
12/09/2019 2:10 9.1 79 0.0 0 0.0 5.5 19.9 36
12/09/2019 2:20 9.6 78 0.0 0 0.0 4.5 16.3 43
12/09/2019 2:30 9.6 79 0.0 0 0.0 4.6 16.6 43
12/09/2019 2:40 9.2 79 0.0 0 0.0 4.5 16.2 43
12/09/2019 2:50 9.4 78 0.0 0 0.0 3.0 10.9 55
12/09/2019 3:00 9.1 79 0.0 0 0.0 3.7 13.3 43
12/09/2019 3:10 9.8 80 0.0 0 0.0 3.3 11.8 55
12/09/2019 3:20 10.2 75 0.0 0 0.0 1.9 6.9 126
12/09/2019 3:30 10.6 73 0.0 0 0.0 3.4 12.1 163
12/09/2019 3:40 11.4 70 0.0 0 0.0 3.9 13.9 171
12/09/2019 3:50 11.5 70 0.0 0 0.0 4.2 15.2 171
12/09/2019 4:00 10.9 72 0.0 0 0.0 4.8 17.3 166
12/09/2019 4:10 10.8 75 0.0 0 0.0 5.5 19.7 166
12/09/2019 4:20 11.0 74 0.0 0 0.0 5.1 18.4 162
12/09/2019 4:30 11.1 72 0.0 0 0.0 4.2 15.0 155
12/09/2019 4:40 11.0 71 0.0 0 0.0 3.9 13.9 151
12/09/2019 4:50 11.5 71 0.0 0 0.0 3.4 12.4 147
12/09/2019 5:00 11.7 70 0.0 0 0.0 3.1 11.1 145
12/09/2019 5:10 11.5 72 0.0 0 0.0 1.5 5.5 141
12/09/2019 5:20 12.2 70 0.0 0 0.0 1.3 4.8 142
12/09/2019 5:30 11.7 71 0.0 0 0.0 1.1 4.1 159
12/09/2019 5:40 13.2 68 0.9 0 0.0 1.4 5.0 182
12/09/2019 5:50 12.9 69 16.5 0 0.0 0.8 3.0 176
12/09/2019 6:00 13.1 69 30.7 318 0.0 0.6 2.2 183
12/09/2019 6:10 13.9 71 49.4 600 0.0 1.0 3.7 160
12/09/2019 6:20 14.5 66 75.2 600 0.0 1.7 6.0 165
12/09/2019 6:30 14.9 68 103.0 600 0.0 1.6 5.8 165
12/09/2019 6:40 14.5 65 132.2 600 0.0 1.0 3.4 146
12/09/2019 6:50 15.3 65 163.1 600 0.0 0.6 2.2 135
12/09/2019 7:00 15.1 64 195.3 600 0.0 0.7 2.7 138
12/09/2019 7:10 14.8 66 227.9 600 0.0 0.7 2.4 88
12/09/2019 7:20 14.2 67 261.0 600 0.0 1.7 6.0 46
12/09/2019 7:30 15.3 66 294.6 600 0.0 1.6 5.6 46
12/09/2019 7:40 15.1 64 328.1 600 0.0 1.8 6.6 43
12/09/2019 7:50 15.6 62 360.2 600 0.0 2.0 7.0 59
12/09/2019 8:00 16.6 59 386.1 600 0.0 1.8 6.5 74
12/09/2019 8:10 15.8 57 411.9 600 0.0 1.8 6.3 68
12/09/2019 8:20 17.9 49 444.1 600 0.0 1.5 5.4 108
12/09/2019 8:30 18.5 48 488.9 600 0.0 1.4 4.9 127
12/09/2019 8:40 19.1 46 481.2 600 0.0 2.3 8.2 146
12/09/2019 8:50 18.5 48 532.7 600 0.0 2.5 9.0 133
12/09/2019 9:00 19.7 49 569.6 600 0.0 2.2 7.8 153
12/09/2019 9:10 18.8 47 587.0 600 0.0 2.9 10.4 146
12/09/2019 9:20 19.6 44 621.0 600 0.0 3.3 11.7 144
12/09/2019 9:30 19.8 43 638.8 600 0.0 3.8 13.8 142
12/09/2019 9:40 19.2 43 294.8 222 0.0 4.6 16.4 147
12/09/2019 9:50 19.7 43 693.1 600 0.0 4.5 16.0 150
12/09/2019 10:00 19.7 41 715.7 600 0.0 4.4 15.9 147
12/09/2019 10:10 21.5 40 735.5 600 0.0 4.2 15.0 155
12/09/2019 10:20 22.0 39 754.2 600 0.0 3.9 14.0 160
12/09/2019 10:30 21.2 40 765.3 600 0.0 3.4 12.1 158
12/09/2019 10:40 21.8 39 782.0 600 0.0 3.3 11.9 161
12/09/2019 10:50 21.2 40 794.4 600 0.0 3.1 11.1 166
12/09/2019 11:00 21.6 41 805.0 600 0.0 3.3 11.8 165
12/09/2019 11:10 22.2 39 817.0 600 0.0 3.7 13.5 170
12/09/2019 11:20 21.8 40 825.0 600 0.0 3.9 14.0 172
12/09/2019 11:30 21.4 42 831.0 600 0.0 3.3 12.0 168
12/09/2019 11:40 22.9 38 837.0 600 0.0 2.5 9.1 168
12/09/2019 11:50 22.3 39 841.0 600 0.0 3.2 11.4 176
12/09/2019 12:00 22.4 40 843.0 600 0.0 3.0 10.7 184
12/09/2019 12:10 21.1 40 844.0 600 0.0 2.7 9.6 211
12/09/2019 12:20 22.8 36 843.0 600 0.0 3.1 11.1 182
12/09/2019 12:30 21.4 41 839.0 600 0.0 1.6 5.8 199
12/09/2019 12:40 19.4 46 831.0 600 0.0 1.0 3.7 340
12/09/2019 12:50 19.9 45 820.0 600 0.0 0.9 3.2 235
12/09/2019 13:00 19.9 44 814.0 600 0.0 0.9 3.2 180
12/09/2019 13:10 20.1 42 802.0 600 0.0 0.8 2.8 358
12/09/2019 13:20 20.1 44 789.9 600 0.0 1.0 3.5 323
12/09/2019 13:30 21.1 40 776.2 600 0.0 1.2 4.2 259
12/09/2019 13:40 20.9 42 755.8 600 0.0 2.1 7.7 315
12/09/2019 13:50 21.1 41 744.0 600 0.0 1.4 5.1 288
12/09/2019 14:00 21.1 39 728.0 600 0.0 2.2 8.0 2
12/09/2019 14:10 20.3 41 711.3 600 0.0 4.8 17.2 344
12/09/2019 14:20 20.9 40 692.6 600 0.0 3.2 11.7 5
12/09/2019 14:30 21.3 39 671.2 600 0.0 3.5 12.5 1
12/09/2019 14:40 21.3 38 648.9 600 0.0 2.8 10.2 352
12/09/2019 14:50 20.9 40 626.1 600 0.0 3.3 12.0 321
12/09/2019 15:00 21.6 40 602.2 600 0.0 3.7 13.2 351
12/09/2019 15:10 21.1 40 574.6 600 0.0 3.7 13.2 332
12/09/2019 15:20 20.9 40 317.2 370 0.0 3.5 12.6 329
12/09/2019 15:30 20.9 39 265.5 302 0.0 6.3 22.8 336
12/09/2019 15:40 20.9 44 255.0 254 0.0 5.5 19.8 330
12/09/2019 15:50 20.5 45 259.7 324 0.0 6.9 24.8 336
12/09/2019 16:00 20.2 49 332.2 582 0.0 8.5 30.5 331
12/09/2019 16:10 20.4 50 166.6 198 0.0 7.6 27.3 342
12/09/2019 16:20 20.2 50 201.7 268 0.0 7.5 27.0 334
12/09/2019 16:30 20.1 50 308.0 600 0.0 7.5 27.0 333
12/09/2019 16:40 19.9 51 295.5 600 0.0 7.3 26.2 342
12/09/2019 16:50 19.3 52 261.8 600 0.0 7.1 25.4 334
12/09/2019 17:00 19.2 53 229.8 600 0.0 8.0 28.8 330
12/09/2019 17:10 18.8 55 198.2 600 0.0 7.8 28.0 332
12/09/2019 17:20 18.2 55 166.6 600 0.0 7.6 27.5 335
12/09/2019 17:30 17.8 57 135.3 600 0.0 7.8 28.1 335
12/09/2019 17:40 16.9 60 106.2 600 0.0 8.2 29.5 336
12/09/2019 17:50 16.6 62 78.9 600 0.0 8.1 29.0 336
12/09/2019 18:00 16.5 64 55.2 600 0.0 7.6 27.3 339
12/09/2019 18:10 15.8 65 35.5 488 0.0 7.7 27.8 342
12/09/2019 18:20 15.6 67 21.5 0 0.0 7.2 26.0 342
12/09/2019 18:30 15.2 67 10.7 0 0.0 7.2 25.8 352
12/09/2019 18:40 15.0 69 0.0 0 0.0 6.9 24.9 358
12/09/2019 18:50 16.1 62 0.0 0 0.0 6.3 22.8 3
12/09/2019 19:00 16.1 62 0.0 0 0.0 6.4 22.9 12
12/09/2019 19:10 16.3 63 0.0 0 0.0 5.8 20.8 13
12/09/2019 19:20 16.3 61 0.0 0 0.0 5.4 19.3 10
12/09/2019 19:30 16.0 64 0.0 0 0.0 5.7 20.6 12
12/09/2019 19:40 16.5 64 0.0 0 0.0 4.9 17.5 15
12/09/2019 19:50 15.6 63 0.0 0 0.0 4.5 16.1 15
12/09/2019 20:00 15.9 64 0.0 0 0.0 4.1 14.7 20
12/09/2019 20:10 15.2 66 0.0 0 0.0 3.9 14.0 22
12/09/2019 20:20 15.5 65 0.0 0 0.0 5.4 19.6 18
12/09/2019 20:30 15.2 64 0.0 0 0.0 5.7 20.4 20
12/09/2019 20:40 15.5 64 0.0 0 0.0 4.5 16.3 15
12/09/2019 20:50 15.5 65 0.0 0 0.0 4.0 14.3 15
12/09/2019 21:00 15.2 63 0.0 0 0.0 3.7 13.5 15
12/09/2019 21:10 15.1 66 0.0 0 0.0 3.5 12.5 11
12/09/2019 21:20 17.2 54 0.0 0 0.0 3.7 13.3 356
12/09/2019 21:30 17.4 52 0.0 0 0.0 3.5 12.6 360
12/09/2019 21:40 17.5 49 0.0 0 0.0 3.1 11.0 356
12/09/2019 21:50 17.4 49 0.0 0 0.0 3.0 10.9 3
12/09/2019 22:00 17.4 51 0.0 0 0.0 3.8 13.6 2
12/09/2019 22:10 17.3 50 0.0 0 0.0 3.1 11.0 7
12/09/2019 22:20 17.8 49 0.0 0 0.0 2.8 10.0 8
12/09/2019 22:30 18.0 47 0.0 0 0.0 1.8 6.5 10
12/09/2019 22:40 18.0 49 0.0 0 0.0 2.3 8.3 9
12/09/2019 22:50 17.8 46 0.0 0 0.0 1.0 3.6 19
12/09/2019 23:00 17.6 46 0.0 0 0.0 1.0 3.4 183
12/09/2019 23:10 18.6 44 0.0 0 0.0 1.5 5.4 145
12/09/2019 23:20 18.5 46 0.0 0 0.0 1.9 6.7 166
12/09/2019 23:30 18.1 46 0.0 0 0.0 2.2 7.7 152
12/09/2019 23:40 17.0 55 0.0 0 0.0 2.9 10.3 159
12/09/2019 23:50 16.6 55 0.0 0 0.0 3.8 13.8 169
Anterior Página 1 de 1 Siguiente
Los datos de precipitación registrados en estaciones que están en cumbres son inferiores a lo real, como consecuencia del efecto del viento y de la nieve.


NOTA: Tipo de datos según el color:
   - Valores diarios o 10 minutos correctos
   - Valores diarios calculados a partir de un número de datos 10 minutos menor que 144 y mayor que 120, o de un número de datos semihorarios menor que 48 y mayor que 40 (caso de las estaciones de Riegos de Navarra y del MARM)
   - Valores diez minutos estimados


Contacto        Enlaces        Aviso legal